San Jose, CA

8:21 PM PST on February 26, 2015 (GMT -0800)
North San Jose / 680 & Hostetter | Change Station
CLOSE
Current Station
Personal Weather Station
Location: San Jose, CA
Elevation: 85 ft
Nearby Weather Stations

Elev 85 ft 37.39 °N, 121.88 °W | Updated 59 seconds ago

Clear
Clear
56.5 °F
Feels Like 56.5 °F
N
0.0
Wind Variable Wind from NW
Gusts 4.0 mph

Today
High -- | Low -- °F
--% Chance of Precip.
Yesterday
High -- | Low -- °F
Precip. -- in
6:43 AM 5:58 PM
Waxing Gibbous, 65% visible
Pressure 29.94 in
Visibility 10.0 miles
Clouds Clear
Dew Point 51 °F
Humidity 83%
Rainfall 0.00 in
Snow Depth Not available.
UV 0 out of 12
Pollen 7.30 out of 12
Air Quality Not available.
Flu Activity Not available.
METAR KSJC 270353Z 33007KT 10SM CLR 14/09 A2994 RMK AO2 SLP138 T01440094

More Conditions Fewer Conditions

Pressure 29.94 in
Visibility 10.0 miles
Clouds Clear
Dew Point 51 °F
Humidity 83%
Rainfall 0.00 in
Snow Depth Not available.
UV 0 out of 12
Pollen 7.30 out of 12
Air Quality Not available.
Flu Activity Not available.
METAR KSJC 270353Z 33007KT 10SM CLR 14/09 A2994 RMK AO2 SLP138 T01440094

More Conditions Fewer Conditions

10-Day Weather Forecast

Almanac

Astronomy

Feb. 26, 2015 Rise Set
Actual Time
Civil Twilight
Nautical Twilight
Astronomical Twilight
Moon
Length of Visible Light
Length of Day
Tomorrow will be .
, % of the Moon is Illuminated

Today's Extremes

State Highs State Lows

Community

WunderPhotos

Upload Photos

1,800,622 photos uploaded!

WunderBlogs® & News

Nearby

Air Quality

  Air Quality AQ Index Pollutant
Not available.

Snow Depth

Station Depth Elevation

Earthquake Activity

City Distance Mag. Time & Date
Minimum magnitude displayed is 2.5.

Coastal Water Temperatures

Place Temperature

Nearby Weather Stations